Time;durP1;ratioP1;P1;durP2;ratioP2;P2;SDS_P1;SDS_P2;PMS_P1;PMS_P2;Temp;Humidity;BMP_temperature;BMP_pressure;BME280_temperature;BME280_humidity;BME280_pressure;Samples;Min_cycle;Max_cycle;Signal;HPM_P1;HPM_P2
2023/08/18 00:02:15;;;;;;;69.75;34.10;;;;;;;17.32;99.47;99056.47;5040823;28;20087;-83
2023/08/18 00:04:41;;;;;;;85.28;35.92;;;;;;;17.85;94.76;99055.31;5006999;28;20421;-83
2023/08/18 00:07:07;;;;;;;124.35;38.85;;;;;;;17.45;97.17;99077.34;5012662;28;20064;-83
2023/08/18 00:09:32;;;;;;;81.35;34.35;;;;;;;17.98;94.49;99056.47;5023247;28;20359;-82
2023/08/18 00:11:58;;;;;;;66.63;31.08;;;;;;;18.42;92.33;99062.31;5006272;28;20636;-83
2023/08/18 00:14:23;;;;;;;64.03;29.73;;;;;;;18.11;93.77;99061.16;5020813;28;20064;-83
2023/08/18 00:16:49;;;;;;;90.72;33.90;;;;;;;18.23;92.46;99060.72;5018922;28;20038;-83
2023/08/18 00:19:14;;;;;;;64.30;30.55;;;;;;;18.92;88.39;99055.28;5025342;28;20045;-83
2023/08/18 00:21:40;;;;;;;64.68;30.17;;;;;;;18.98;88.57;99037.88;5010927;28;20044;-83
2023/08/18 00:24:06;;;;;;;88.00;33.15;;;;;;;18.35;91.11;99047.56;5017079;28;20037;-83
2023/08/18 00:26:31;;;;;;;83.40;31.10;;;;;;;18.05;93.49;99037.22;5008154;28;20044;-83
2023/08/18 00:28:56;;;;;;;64.15;30.67;;;;;;;18.52;90.80;99059.47;5007743;28;20044;-83
2023/08/18 00:31:24;;;;;;;59.60;29.42;;;;;;;18.13;94.35;99050.84;5023853;28;20025;-83
2023/08/18 00:33:50;;;;;;;89.80;35.25;;;;;;;17.29;98.02;99050.84;5007253;28;20049;-82
2023/08/18 00:36:15;;;;;;;71.47;32.83;;;;;;;18.12;94.96;99043.06;5012735;28;20466;-83
2023/08/18 00:38:41;;;;;;;111.95;37.85;;;;;;;17.73;94.78;99054.94;5025992;28;20041;-83
2023/08/18 00:41:06;;;;;;;97.95;32.63;;;;;;;18.10;93.80;99053.34;5009626;28;20457;-83
2023/08/18 00:43:31;;;;;;;69.75;31.40;;;;;;;18.43;92.08;99049.63;5027574;28;20025;-83
2023/08/18 00:45:57;;;;;;;58.60;29.02;;;;;;;18.86;89.63;99037.56;5027429;28;20030;-83
2023/08/18 00:48:23;;;;;;;63.42;29.13;;;;;;;19.06;88.48;99037.19;4999960;28;20029;-84
2023/08/18 00:50:50;;;;;;;61.50;27.88;;;;;;;19.30;87.59;99050.53;5027825;28;20493;-83
2023/08/18 00:53:16;;;;;;;54.10;26.92;;;;;;;19.34;86.67;99038.00;5030744;28;20032;-84
2023/08/18 00:55:42;;;;;;;61.25;28.42;;;;;;;19.41;86.07;99028.44;5029841;28;20544;-84
2023/08/18 00:58:08;;;;;;;51.65;27.45;;;;;;;19.52;85.73;99044.47;5044246;28;20032;-84
2023/08/18 01:00:35;;;;;;;56.80;27.83;;;;;;;19.57;85.54;99047.06;5010852;28;20033;-84
2023/08/18 01:03:03;;;;;;;109.40;31.83;;;;;;;18.53;89.29;99047.56;5011248;28;20068;-83
2023/08/18 01:05:29;;;;;;;64.35;28.98;;;;;;;18.33;91.97;99044.34;5028813;28;20036;-83
2023/08/18 01:07:54;;;;;;;61.10;28.40;;;;;;;18.27;92.24;99030.13;5027277;28;20124;-83
2023/08/18 01:10:21;;;;;;;69.97;31.70;;;;;;;18.21;92.98;99042.13;5007533;28;20034;-83
2023/08/18 01:13:13;;;;;;;143.02;33.22;;;;;;;17.24;97.50;99044.41;5025996;28;20040;-83
2023/08/18 01:15:42;;;;;;;113.30;36.42;;;;;;;17.14;100.00;99038.34;5026638;28;20029;-83
2023/08/18 01:18:10;;;;;;;94.05;34.63;;;;;;;17.79;96.12;99042.16;5026907;28;20426;-83
2023/08/18 01:20:37;;;;;;;75.55;32.75;;;;;;;17.78;96.80;99037.84;5030060;28;20029;-83
2023/08/18 01:23:04;;;;;;;118.47;34.85;;;;;;;17.32;97.99;99029.47;5027258;28;20033;-83
2023/08/18 01:25:30;;;;;;;69.60;30.75;;;;;;;17.62;97.62;99017.56;5033846;28;20030;-83
2023/08/18 01:27:57;;;;;;;105.07;32.60;;;;;;;17.83;95.61;99035.09;5016189;28;20029;-83
2023/08/18 01:30:48;;;;;;;149.00;35.65;;;;;;;17.26;98.66;99033.34;5028725;28;20060;-82
2023/08/18 01:33:31;;;;;;;59.47;25.35;;;;;;;17.87;96.04;99030.69;5010991;28;20072;-83
2023/08/18 01:36:07;;;;;;;129.18;34.40;;;;;;;17.20;98.53;99004.81;5031144;28;20420;-83
2023/08/18 01:38:34;;;;;;;123.00;35.47;;;;;;;16.92;100.00;99005.66;5041076;28;20627;-83
2023/08/18 01:41:00;;;;;;;77.15;28.83;;;;;;;17.51;99.50;99022.28;5030829;28;20324;-82
2023/08/18 01:43:27;;;;;;;138.30;33.67;;;;;;;17.18;97.98;98994.31;5026019;28;20061;-82
2023/08/18 01:45:53;;;;;;;66.80;30.02;;;;;;;17.45;98.63;99015.28;5030137;28;20147;-83
2023/08/18 01:48:18;;;;;;;69.10;29.38;;;;;;;17.50;98.38;99012.56;5026244;28;20517;-83
2023/08/18 01:50:44;;;;;;;76.38;29.25;;;;;;;17.34;98.43;99004.94;5027989;28;20029;-83
2023/08/18 01:53:09;;;;;;;50.90;27.35;;;;;;;17.70;97.59;99015.00;5028196;28;20453;-82
2023/08/18 01:55:34;;;;;;;65.70;28.55;;;;;;;17.82;95.67;99015.38;5026514;28;20034;-83
2023/08/18 01:58:00;;;;;;;77.47;29.35;;;;;;;17.68;96.53;99016.38;5023849;28;20029;-82
2023/08/18 02:00:25;;;;;;;70.03;30.38;;;;;;;18.06;94.04;99009.91;5029106;28;20362;-83
2023/08/18 02:02:50;;;;;;;127.05;35.70;;;;;;;17.58;96.76;99011.91;5027565;28;20033;-83
2023/08/18 02:05:16;;;;;;;57.72;27.83;;;;;;;18.03;94.98;99009.69;5024043;28;20375;-83
2023/08/18 02:07:41;;;;;;;113.75;31.10;;;;;;;17.40;97.42;98987.56;5010061;28;20518;-83
2023/08/18 02:10:07;;;;;;;80.80;29.20;;;;;;;17.10;100.00;98978.75;5026466;28;20063;-83
2023/08/18 02:12:32;;;;;;;56.88;27.30;;;;;;;17.28;100.00;98993.38;5025267;28;20608;-83
2023/08/18 02:14:58;;;;;;;145.63;34.22;;;;;;;17.12;99.93;99008.94;5028083;28;20057;-82
2023/08/18 02:17:29;;;;;;;50.75;23.83;;;;;;;17.84;97.13;99004.28;5025921;28;20025;-83
2023/08/18 02:19:54;;;;;;;54.45;25.20;;;;;;;18.24;93.03;98987.47;5010469;28;20369;-83
2023/08/18 02:22:20;;;;;;;40.92;22.80;;;;;;;18.24;93.96;99000.19;5023623;28;20030;-82
2023/08/18 02:24:45;;;;;;;46.08;24.80;;;;;;;18.07;94.28;98989.91;5023730;28;20428;-83
2023/08/18 02:27:10;;;;;;;57.00;26.10;;;;;;;17.90;94.77;98993.13;5008857;28;20942;-83
2023/08/18 02:29:36;;;;;;;77.32;28.98;;;;;;;17.28;98.66;98990.69;5010320;28;20037;-82
2023/08/18 02:32:01;;;;;;;107.55;33.95;;;;;;;17.12;100.00;98989.28;5022710;28;20120;-83
2023/08/18 02:34:26;;;;;;;63.42;28.75;;;;;;;17.05;100.00;98989.63;5027562;28;20743;-83
2023/08/18 02:36:52;;;;;;;95.53;33.30;;;;;;;16.84;100.00;98992.81;5025472;28;20076;-83
2023/08/18 02:39:17;;;;;;;89.55;32.33;;;;;;;17.08;100.00;98977.44;5022024;28;20627;-83
2023/08/18 02:41:42;;;;;;;43.22;25.90;;;;;;;17.56;98.86;98986.31;5025959;28;20126;-83
2023/08/18 02:44:08;;;;;;;103.63;31.85;;;;;;;17.13;99.74;98982.75;5023842;28;20025;-83
2023/08/18 02:46:33;;;;;;;197.15;39.63;;;;;;;16.80;100.00;98986.34;5026142;28;20067;-83
2023/08/18 02:48:58;;;;;;;56.63;29.13;;;;;;;17.65;98.89;98990.78;5023143;28;20149;-83
2023/08/18 02:51:24;;;;;;;46.42;26.17;;;;;;;18.23;94.25;98982.38;5024635;28;20057;-83
2023/08/18 02:53:50;;;;;;;133.80;30.88;;;;;;;17.80;94.74;98966.25;5006588;28;20128;-82
2023/08/18 02:56:16;;;;;;;43.90;22.88;;;;;;;18.10;95.28;98980.41;4991431;28;20057;-83
2023/08/18 02:58:41;;;;;;;37.45;22.65;;;;;;;18.64;92.35;98976.00;5022507;28;20029;-84
2023/08/18 03:01:07;;;;;;;57.58;26.23;;;;;;;17.74;96.43;98977.41;5025376;28;20029;-82
2023/08/18 03:03:34;;;;;;;44.80;26.83;;;;;;;17.59;97.51;98980.34;5023526;28;21818;-82
2023/08/18 03:06:01;;;;;;;57.22;28.55;;;;;;;17.30;99.27;98977.69;5029492;28;20106;-83
2023/08/18 03:08:26;;;;;;;55.58;27.83;;;;;;;17.53;98.22;98986.91;5005435;28;20120;-83
2023/08/18 03:10:59;;;;;;;42.17;25.52;;;;;;;18.23;94.83;98979.66;5027430;28;20104;-83
2023/08/18 03:13:25;;;;;;;46.40;23.75;;;;;;;17.97;94.54;98981.97;5041055;28;20029;-83
2023/08/18 03:15:51;;;;;;;42.97;25.05;;;;;;;17.63;97.68;98987.56;5023943;28;20721;-83
2023/08/18 03:18:17;;;;;;;50.53;27.20;;;;;;;17.23;99.74;98982.66;5027056;28;20029;-82
2023/08/18 03:20:43;;;;;;;74.47;29.73;;;;;;;17.02;100.00;98973.19;5026760;28;20056;-83
2023/08/18 03:23:10;;;;;;;47.22;24.35;;;;;;;17.77;99.28;98988.47;5027739;28;20029;-82
2023/08/18 03:25:36;;;;;;;46.67;25.75;;;;;;;18.00;95.82;98988.69;5026819;28;20040;-83
2023/08/18 03:28:01;;;;;;;57.20;28.08;;;;;;;17.90;94.78;98976.13;5007984;28;20441;-83
2023/08/18 03:30:27;;;;;;;49.70;28.13;;;;;;;17.72;97.25;98991.22;5024152;28;20112;-83
2023/08/18 03:32:55;;;;;;;79.05;30.20;;;;;;;17.51;97.99;98992.59;5005035;28;20037;-82
2023/08/18 03:35:21;;;;;;;78.63;29.80;;;;;;;17.41;98.77;98981.88;5026413;28;20067;-83
2023/08/18 03:37:46;;;;;;;47.72;26.27;;;;;;;17.56;99.09;98991.72;5029594;28;20053;-83
2023/08/18 03:40:12;;;;;;;52.75;26.98;;;;;;;17.65;97.69;98985.38;5027205;28;20033;-83
2023/08/18 03:42:37;;;;;;;86.47;31.13;;;;;;;17.61;96.96;98987.06;5026255;28;20394;-83
2023/08/18 03:45:04;;;;;;;86.28;32.08;;;;;;;17.22;98.90;98979.16;5011414;28;20400;-83
2023/08/18 03:47:29;;;;;;;80.38;33.03;;;;;;;17.06;100.00;98980.41;5011278;28;20501;-83
2023/08/18 03:49:54;;;;;;;65.78;31.55;;;;;;;16.95;100.00;98995.09;5010733;28;20048;-83
2023/08/18 03:52:20;;;;;;;53.88;26.90;;;;;;;17.42;100.00;98993.47;4994312;28;20524;-82
2023/08/18 03:54:45;;;;;;;45.28;24.98;;;;;;;18.00;96.43;98973.25;5024554;28;20393;-83
2023/08/18 03:57:10;;;;;;;48.75;27.02;;;;;;;17.97;95.33;98988.16;5026358;28;20086;-83
2023/08/18 03:59:36;;;;;;;41.38;23.50;;;;;;;18.23;94.48;99001.28;5009991;28;20029;-83
2023/08/18 04:02:01;;;;;;;47.40;25.30;;;;;;;18.20;94.52;98997.25;5012173;28;20092;-83
2023/08/18 04:04:27;;;;;;;51.72;27.73;;;;;;;18.21;93.78;99001.59;5028591;28;20396;-83
2023/08/18 04:06:52;;;;;;;40.92;23.52;;;;;;;18.48;93.77;98990.88;5026304;28;20034;-82
2023/08/18 04:09:17;;;;;;;58.25;26.83;;;;;;;17.62;96.48;98991.38;5012010;28;20033;-83
2023/08/18 04:11:43;;;;;;;38.28;22.75;;;;;;;18.33;94.51;98987.59;5028770;28;20120;-82
2023/08/18 04:14:10;;;;;;;38.15;21.77;;;;;;;18.34;93.97;98998.13;5029578;28;20045;-84
2023/08/18 04:16:35;;;;;;;35.92;21.02;;;;;;;18.68;92.26;98990.53;5030311;28;20049;-83
2023/08/18 04:19:01;;;;;;;36.05;22.05;;;;;;;18.59;91.46;98986.91;5047141;28;20516;-83
2023/08/18 04:21:27;;;;;;;32.63;21.10;;;;;;;18.72;91.41;98992.66;5026198;28;20543;-83
2023/08/18 04:23:53;;;;;;;34.40;20.73;;;;;;;18.72;90.69;98995.38;5025784;28;20029;-82
2023/08/18 04:26:19;;;;;;;40.42;24.15;;;;;;;18.22;93.43;98983.44;5028188;28;20029;-83
2023/08/18 04:28:44;;;;;;;39.72;24.60;;;;;;;18.17;93.92;98988.94;5009068;28;20025;-83
2023/08/18 04:31:11;;;;;;;33.08;22.25;;;;;;;18.23;94.37;98991.28;5027909;28;20033;-83
2023/08/18 04:33:36;;;;;;;52.05;26.33;;;;;;;17.83;96.06;99002.69;5015762;28;20037;-83
2023/08/18 04:36:02;;;;;;;36.85;21.73;;;;;;;18.28;94.96;99002.00;5029505;28;20079;-83
2023/08/18 04:38:27;;;;;;;44.67;25.38;;;;;;;18.30;92.69;98980.91;5024903;28;20035;-83
2023/08/18 04:41:02;;;;;;;39.15;22.33;;;;;;;18.66;92.68;98997.34;5023466;28;20048;-84
2023/08/18 04:43:30;;;;;;;50.13;27.17;;;;;;;17.76;96.29;99003.03;4997790;28;20053;-84
2023/08/18 04:45:57;;;;;;;52.38;27.98;;;;;;;17.61;97.61;99005.94;5022888;28;20544;-83
2023/08/18 04:48:23;;;;;;;49.70;25.67;;;;;;;17.75;97.83;98998.75;5004893;28;20033;-83
2023/08/18 04:50:49;;;;;;;37.05;24.77;;;;;;;18.17;96.40;98989.75;5020374;28;20397;-85
2023/08/18 04:53:15;;;;;;;36.90;23.60;;;;;;;18.67;92.79;98996.25;5023330;28;20044;-86
2023/08/18 04:55:42;;;;;;;35.80;23.98;;;;;;;18.70;92.28;98979.41;5028386;28;20037;-84
2023/08/18 04:58:12;;;;;;;40.03;23.63;;;;;;;18.73;92.07;98989.66;5027604;28;20056;-85
2023/08/18 05:00:43;;;;;;;48.17;27.77;;;;;;;18.57;91.73;98985.59;5029935;28;20031;-86
2023/08/18 05:03:09;;;;;;;35.58;22.83;;;;;;;18.87;91.46;98985.03;5029848;28;20026;-85
2023/08/18 05:05:39;;;;;;;31.60;20.50;;;;;;;18.85;91.06;98976.44;5031566;28;20061;-85
2023/08/18 05:08:05;;;;;;;55.70;27.60;;;;;;;18.18;93.11;98956.22;5015168;28;20376;-85
2023/08/18 05:10:30;;;;;;;56.22;28.05;;;;;;;18.35;93.24;98978.09;5044840;28;20048;-85
2023/08/18 05:12:55;;;;;;;47.60;27.60;;;;;;;17.88;96.19;98981.81;5013375;28;20615;-85
2023/08/18 05:15:22;;;;;;;53.20;28.10;;;;;;;17.78;97.32;98986.53;5015209;28;20413;-84
2023/08/18 05:17:48;;;;;;;50.72;29.38;;;;;;;17.73;97.79;98978.53;5029236;28;20108;-84
2023/08/18 05:20:14;;;;;;;48.35;26.63;;;;;;;17.70;99.12;98982.63;5030728;28;20112;-85
2023/08/18 05:22:41;;;;;;;61.83;31.30;;;;;;;17.56;99.13;98984.41;5014820;28;20036;-85
2023/08/18 05:25:08;;;;;;;48.55;27.65;;;;;;;17.56;99.67;98981.72;5016226;28;20124;-85
2023/08/18 05:27:34;;;;;;;43.10;23.58;;;;;;;18.07;96.95;98973.69;5029866;28;20018;-84
2023/08/18 05:29:59;;;;;;;45.88;27.35;;;;;;;18.01;96.82;98982.16;5030368;28;20025;-85
2023/08/18 05:32:25;;;;;;;61.90;29.52;;;;;;;17.72;98.32;98988.53;5007666;28;20508;-84
2023/08/18 05:34:55;;;;;;;87.68;32.10;;;;;;;17.47;100.00;98993.44;5029734;28;20029;-84
2023/08/18 05:37:20;;;;;;;55.05;27.55;;;;;;;18.15;96.71;98983.81;5028031;28;20021;-84
2023/08/18 05:39:46;;;;;;;42.90;25.55;;;;;;;18.14;96.85;98981.41;4995581;28;20040;-84
2023/08/18 05:42:11;;;;;;;38.75;23.80;;;;;;;18.60;93.49;98974.19;5030158;28;20029;-84
2023/08/18 05:44:37;;;;;;;75.30;31.30;;;;;;;18.19;95.43;98981.34;5025013;28;20029;-84
2023/08/18 05:47:03;;;;;;;64.60;32.05;;;;;;;17.70;99.60;98992.59;5014254;28;20108;-84
2023/08/18 05:49:29;;;;;;;38.17;23.77;;;;;;;18.28;96.41;98974.97;5031503;28;20484;-84
2023/08/18 05:51:54;;;;;;;73.72;32.22;;;;;;;18.06;96.79;98974.81;5028899;28;20033;-84
2023/08/18 05:54:19;;;;;;;72.47;34.10;;;;;;;17.57;99.74;98986.03;5030929;28;20053;-84
2023/08/18 05:56:45;;;;;;;56.58;30.45;;;;;;;17.57;100.00;98999.53;5015035;28;20029;-84
2023/08/18 05:59:11;;;;;;;79.82;33.47;;;;;;;17.90;98.04;98984.22;5030865;28;20032;-84
2023/08/18 06:01:36;;;;;;;65.85;32.20;;;;;;;17.69;99.44;98966.72;5031180;28;20040;-84
2023/08/18 06:04:02;;;;;;;81.38;35.17;;;;;;;17.65;99.47;98960.25;5028727;28;20111;-84
2023/08/18 06:06:27;;;;;;;45.30;25.52;;;;;;;18.00;98.98;98994.09;5048186;28;20570;-84
2023/08/18 06:08:52;;;;;;;57.60;31.30;;;;;;;18.19;96.97;98989.47;4998450;28;20473;-85
2023/08/18 06:11:18;;;;;;;51.70;29.98;;;;;;;18.10;97.88;98993.91;5014372;28;20148;-85
2023/08/18 06:13:43;;;;;;;65.82;31.05;;;;;;;18.20;97.58;98999.16;5022601;28;20033;-85
2023/08/18 06:16:08;;;;;;;69.55;31.80;;;;;;;18.45;95.72;99005.00;5014322;28;20026;-85
2023/08/18 06:18:34;;;;;;;97.95;33.97;;;;;;;17.94;99.00;99009.53;5030511;28;20587;-84
2023/08/18 06:21:00;;;;;;;46.22;27.10;;;;;;;18.38;97.45;98998.34;5015675;28;20037;-84
2023/08/18 06:23:26;;;;;;;63.20;32.08;;;;;;;18.23;97.42;98990.47;5033441;28;20033;-85
2023/08/18 06:25:54;;;;;;;67.22;34.28;;;;;;;18.42;97.20;98996.63;5012811;28;20078;-85
2023/08/18 06:28:19;;;;;;;80.40;36.75;;;;;;;18.18;98.46;98994.06;5032014;28;20041;-85
2023/08/18 06:30:44;;;;;;;70.15;37.10;;;;;;;17.93;100.00;99006.03;5014168;28;20059;-84
2023/08/18 06:33:10;;;;;;;75.90;40.08;;;;;;;17.80;100.00;99005.97;5023529;28;20056;-84
2023/08/18 06:35:35;;;;;;;106.80;42.88;;;;;;;17.66;100.00;99019.38;4997286;28;20030;-85
2023/08/18 06:38:01;;;;;;;101.63;39.95;;;;;;;17.61;100.00;99024.84;5027220;28;20033;-84
2023/08/18 06:40:26;;;;;;;94.18;41.60;;;;;;;17.48;100.00;99027.41;5028502;28;20096;-84
2023/08/18 06:42:51;;;;;;;100.28;41.28;;;;;;;17.31;100.00;98995.50;5030398;28;20029;-84
2023/08/18 06:45:17;;;;;;;75.68;39.50;;;;;;;17.68;100.00;99027.19;5013453;28;20041;-84
2023/08/18 06:47:43;;;;;;;64.28;35.08;;;;;;;17.88;100.00;99016.13;5029686;28;20034;-84
2023/08/18 06:50:09;;;;;;;67.55;35.20;;;;;;;18.34;99.63;99027.06;5013065;28;20029;-85
2023/08/18 06:52:35;;;;;;;54.80;33.70;;;;;;;18.68;96.02;99027.59;5030411;28;20057;-85
2023/08/18 06:55:03;;;;;;;57.00;30.50;;;;;;;18.98;94.94;99021.63;5030747;28;20107;-85
2023/08/18 06:57:29;;;;;;;52.55;30.05;;;;;;;18.89;95.15;99023.44;5030327;28;20026;-84
2023/08/18 06:59:54;;;;;;;62.05;34.30;;;;;;;19.00;94.36;99024.84;5013838;28;20412;-85
2023/08/18 07:02:20;;;;;;;56.58;29.35;;;;;;;19.53;91.43;99027.91;5029826;28;20041;-85
2023/08/18 07:04:45;;;;;;;67.45;35.00;;;;;;;18.93;93.42;98983.06;5010193;28;20037;-85
2023/08/18 07:07:11;;;;;;;67.60;36.45;;;;;;;18.80;97.25;99035.25;5027338;28;20713;-84
2023/08/18 07:09:36;;;;;;;54.58;31.60;;;;;;;18.89;96.17;99025.34;5009439;28;20029;-85
2023/08/18 07:12:02;;;;;;;53.33;30.13;;;;;;;19.02;94.55;99017.25;5001707;28;20037;-84
2023/08/18 07:14:28;;;;;;;59.50;34.50;;;;;;;19.16;94.95;99038.88;4995054;28;20030;-85
2023/08/18 07:16:53;;;;;;;66.35;37.33;;;;;;;19.00;96.26;99034.88;5029468;28;20032;-84
2023/08/18 07:19:18;;;;;;;79.85;37.95;;;;;;;18.34;98.65;99027.84;5030896;28;20033;-84
2023/08/18 07:21:44;;;;;;;66.22;37.78;;;;;;;18.28;100.00;99039.03;5029200;28;20033;-84
2023/08/18 07:24:09;;;;;;;69.65;36.05;;;;;;;18.45;99.59;99047.44;5013965;28;20541;-84
2023/08/18 07:26:34;;;;;;;59.22;34.47;;;;;;;18.94;96.34;99044.97;5028402;28;20454;-84
2023/08/18 07:29:00;;;;;;;56.08;30.38;;;;;;;18.85;96.74;99024.34;5026827;28;20041;-84
2023/08/18 07:31:25;;;;;;;60.58;33.97;;;;;;;18.49;99.70;99043.88;5030714;28;20086;-84
2023/08/18 07:33:52;;;;;;;65.20;34.20;;;;;;;18.48;100.00;99050.34;5030223;28;20033;-85
2023/08/18 07:36:18;;;;;;;60.95;32.90;;;;;;;18.33;100.00;99026.25;5025754;28;20423;-84
2023/08/18 07:38:43;;;;;;;61.40;34.22;;;;;;;18.58;100.00;99042.09;5025812;28;20117;-84
2023/08/18 07:41:09;;;;;;;62.83;31.40;;;;;;;18.65;100.00;99039.78;5019317;28;20030;-84
2023/08/18 07:43:34;;;;;;;65.20;33.65;;;;;;;18.40;100.00;99034.78;5013247;28;20033;-84
2023/08/18 07:46:00;;;;;;;64.38;33.90;;;;;;;18.35;100.00;99018.63;5029139;28;20431;-84
2023/08/18 07:48:25;;;;;;;65.40;34.17;;;;;;;18.63;100.00;99054.72;5030759;28;20029;-84
2023/08/18 07:50:52;;;;;;;57.20;33.47;;;;;;;18.43;100.00;99034.19;4996250;28;20037;-84
2023/08/18 07:53:17;;;;;;;59.42;32.88;;;;;;;18.58;100.00;99049.41;5037707;28;20036;-83
2023/08/18 07:55:42;;;;;;;47.20;28.30;;;;;;;18.94;100.00;99039.56;5005717;28;20034;-84
2023/08/18 07:58:08;;;;;;;41.78;25.15;;;;;;;19.97;92.46;99047.00;4996062;28;21910;-84
2023/08/18 08:00:34;;;;;;;33.00;23.38;;;;;;;19.92;92.12;99032.78;5014891;28;20031;-84
2023/08/18 08:02:59;;;;;;;35.58;22.88;;;;;;;20.16;90.01;99036.81;5009667;28;20044;-84
2023/08/18 08:05:25;;;;;;;34.90;22.85;;;;;;;20.43;89.85;99040.56;5029044;28;20030;-84
2023/08/18 08:07:51;;;;;;;35.33;22.75;;;;;;;20.59;88.25;99022.81;5029995;28;20029;-83
2023/08/18 08:10:17;;;;;;;41.92;26.45;;;;;;;20.49;90.51;99037.41;5026509;28;20038;-85
2023/08/18 08:12:44;;;;;;;44.17;29.80;;;;;;;20.15;93.15;99032.50;5027168;28;20022;-85
2023/08/18 08:15:11;;;;;;;46.10;29.52;;;;;;;19.91;94.78;99042.00;5013225;28;20654;-84
2023/08/18 08:17:37;;;;;;;39.50;30.10;;;;;;;20.10;95.54;99032.63;5027823;28;20032;-84
2023/08/18 08:20:10;;;;;;;41.90;28.58;;;;;;;20.41;94.11;99043.59;5029407;28;20408;-84
2023/08/18 08:22:36;;;;;;;29.95;22.00;;;;;;;20.92;89.23;99029.56;5041482;28;20025;-84
2023/08/18 08:25:02;;;;;;;41.65;28.38;;;;;;;20.67;93.18;99032.91;5008487;28;20470;-84
2023/08/18 08:27:28;;;;;;;40.15;29.92;;;;;;;20.79;92.92;99039.38;5019809;28;20026;-84
2023/08/18 08:29:53;;;;;;;31.83;21.35;;;;;;;21.22;88.82;99030.69;5029850;28;20040;-84
2023/08/18 08:32:18;;;;;;;37.60;26.42;;;;;;;21.00;90.40;99020.66;5010739;28;20033;-84
2023/08/18 08:34:49;;;;;;;31.48;23.40;;;;;;;21.15;89.98;99039.28;4995817;28;20489;-84
2023/08/18 08:37:14;;;;;;;25.88;20.23;;;;;;;21.76;85.76;99032.91;5013388;28;20025;-84
2023/08/18 08:39:40;;;;;;;34.55;25.63;;;;;;;21.51;88.44;99036.38;5028692;28;20033;-85
2023/08/18 08:42:08;;;;;;;33.40;26.40;;;;;;;21.52;89.39;99029.81;5028922;28;20033;-84
2023/08/18 08:44:34;;;;;;;33.28;26.42;;;;;;;21.37;88.07;99036.50;5036463;28;20532;-85
2023/08/18 08:47:03;;;;;;;30.13;22.45;;;;;;;21.60;87.25;99045.38;5035737;28;20112;-84
2023/08/18 08:49:34;;;;;;;32.55;22.67;;;;;;;21.84;86.59;99043.03;5033425;28;20030;-84
2023/08/18 08:52:03;;;;;;;24.60;19.17;;;;;;;21.75;85.95;99025.91;5026655;28;20037;-84
2023/08/18 08:54:30;;;;;;;31.60;24.73;;;;;;;21.44;88.39;99019.75;5030807;28;20498;-84
2023/08/18 08:56:57;;;;;;;28.63;24.52;;;;;;;21.55;89.27;99035.44;5031650;28;20021;-84
2023/08/18 08:59:22;;;;;;;31.52;25.00;;;;;;;21.28;88.28;99013.13;5033131;28;20099;-85
2023/08/18 09:01:48;;;;;;;22.63;19.08;;;;;;;21.70;87.38;99017.91;5015857;28;20093;-84
2023/08/18 09:04:15;;;;;;;22.70;18.83;;;;;;;22.00;85.38;99011.56;5017335;28;20048;-84
2023/08/18 09:06:40;;;;;;;25.08;20.90;;;;;;;21.84;87.62;99015.84;5021110;28;20029;-84
2023/08/18 09:09:07;;;;;;;30.50;23.20;;;;;;;21.64;87.87;99008.28;5013882;28;20477;-84
2023/08/18 09:11:44;;;;;;;26.73;23.10;;;;;;;21.53;87.72;99024.09;5016848;28;20034;-84
2023/08/18 09:14:09;;;;;;;26.17;21.77;;;;;;;21.38;88.63;99015.56;5027007;28;20035;-84
2023/08/18 09:16:35;;;;;;;24.77;21.58;;;;;;;21.57;90.32;99005.25;5030179;28;20026;-85
2023/08/18 09:19:01;;;;;;;25.05;22.00;;;;;;;21.63;88.38;99001.25;5040845;28;20087;-84
2023/08/18 09:21:27;;;;;;;22.98;20.35;;;;;;;21.77;88.43;99001.94;5016230;28;20094;-84
2023/08/18 09:23:56;;;;;;;22.42;18.02;;;;;;;22.41;85.52;99004.84;5016544;28;20128;-84
2023/08/18 09:26:24;;;;;;;23.73;20.63;;;;;;;21.93;84.75;99013.94;5026366;28;20045;-85
2023/08/18 09:28:50;;;;;;;23.98;20.05;;;;;;;21.67;87.20;98957.97;5030224;28;20026;-84
2023/08/18 09:31:15;;;;;;;27.00;21.25;;;;;;;21.87;85.76;99009.78;5049272;28;20402;-84
2023/08/18 09:33:41;;;;;;;21.77;18.63;;;;;;;22.17;86.89;99008.06;5009855;28;20040;-84
2023/08/18 09:36:11;;;;;;;20.63;17.33;;;;;;;22.69;84.51;98990.59;4999372;28;20560;-84
2023/08/18 09:38:43;;;;;;;20.05;17.88;;;;;;;22.55;83.46;99000.00;5030388;28;20017;-85
2023/08/18 09:41:12;;;;;;;19.67;17.45;;;;;;;22.71;83.75;98998.41;5033632;28;20496;-84
2023/08/18 09:43:39;;;;;;;18.50;16.60;;;;;;;22.93;82.54;98984.59;5023445;28;20053;-84
2023/08/18 09:46:06;;;;;;;18.02;16.17;;;;;;;23.13;80.73;98957.41;5032381;28;20393;-84
2023/08/18 09:48:38;;;;;;;18.58;16.75;;;;;;;23.25;80.07;98972.28;5031639;28;20036;-84
2023/08/18 09:51:07;;;;;;;18.70;16.55;;;;;;;23.34;79.78;98983.94;5027921;28;20111;-84
2023/08/18 09:53:33;;;;;;;19.33;16.70;;;;;;;22.97;80.61;98989.06;5017041;28;20025;-84
2023/08/18 09:56:12;;;;;;;19.27;16.17;;;;;;;23.42;80.20;98973.00;5029182;28;20033;-85
2023/08/18 09:58:43;;;;;;;16.13;14.50;;;;;;;23.54;79.69;98977.75;5027099;28;20025;-85
2023/08/18 10:01:10;;;;;;;19.63;17.67;;;;;;;23.04;78.61;98964.06;5016690;28;20024;-84
2023/08/18 10:03:38;;;;;;;20.30;17.27;;;;;;;23.10;80.01;98979.88;5014788;28;20040;-84
2023/08/18 10:06:07;;;;;;;18.70;16.77;;;;;;;23.66;79.00;98966.91;5032109;28;21709;-84
2023/08/18 10:08:33;;;;;;;16.40;14.70;;;;;;;24.08;77.80;98976.75;5031036;28;20095;-84
2023/08/18 10:11:00;;;;;;;16.85;15.25;;;;;;;23.45;78.20;98977.81;5030980;28;20048;-84
2023/08/18 10:13:29;;;;;;;18.88;16.52;;;;;;;23.74;78.01;98953.22;5030438;28;20053;-85
2023/08/18 10:15:55;;;;;;;18.17;14.70;;;;;;;23.69;78.26;98955.38;5015469;28;20022;-84
2023/08/18 10:18:21;;;;;;;15.20;13.60;;;;;;;23.52;75.03;98959.03;5029525;28;20481;-83
2023/08/18 10:20:51;;;;;;;19.90;12.70;;;;;;;23.40;75.27;98956.19;5023484;28;20631;-84
2023/08/18 10:23:17;;;;;;;15.50;12.90;;;;;;;23.65;77.48;98955.25;5012219;28;20557;-84
2023/08/18 10:25:45;;;;;;;13.98;12.60;;;;;;;24.16;76.68;98958.69;5041597;28;20041;-85
2023/08/18 10:28:14;;;;;;;20.75;13.07;;;;;;;24.68;75.44;98956.28;5012900;28;20029;-84
2023/08/18 10:30:40;;;;;;;11.50;9.88;;;;;;;24.39;71.01;98941.66;5012276;28;20025;-85
2023/08/18 10:33:07;;;;;;;11.25;10.13;;;;;;;23.99;72.81;98945.19;5023636;28;20033;-85
2023/08/18 10:35:33;;;;;;;10.95;9.85;;;;;;;24.18;72.57;98948.28;5014218;28;20034;-84
2023/08/18 10:38:04;;;;;;;10.73;9.63;;;;;;;24.38;71.01;98950.94;5014102;28;20025;-85
2023/08/18 10:40:30;;;;;;;11.27;9.95;;;;;;;24.23;70.04;98946.13;5022747;28;20401;-85
2023/08/18 10:43:04;;;;;;;9.88;8.82;;;;;;;24.80;72.00;98943.47;5027702;28;20021;-85
2023/08/18 10:45:30;;;;;;;10.95;9.85;;;;;;;24.94;70.49;98921.28;5031000;28;20025;-84
2023/08/18 10:48:04;;;;;;;13.40;9.93;;;;;;;24.86;70.12;98930.38;5020722;28;20060;-85
2023/08/18 10:50:32;;;;;;;14.68;10.45;;;;;;;24.99;69.58;98935.50;5029867;28;20028;-84
2023/08/18 10:52:57;;;;;;;12.68;9.65;;;;;;;25.52;69.58;98926.28;5032991;28;20486;-85
2023/08/18 10:55:24;;;;;;;12.55;9.98;;;;;;;25.81;67.06;98938.88;5031477;28;20039;-84
2023/08/18 10:57:49;;;;;;;10.77;9.65;;;;;;;26.11;67.90;98931.16;5043724;28;20055;-85
2023/08/18 11:00:17;;;;;;;13.05;9.98;;;;;;;26.03;67.85;98938.34;5028772;28;20056;-84
2023/08/18 11:02:44;;;;;;;12.73;9.63;;;;;;;26.08;67.09;98926.38;5030447;28;20028;-85
2023/08/18 11:05:10;;;;;;;10.75;9.65;;;;;;;26.15;67.28;98910.97;5013020;28;20029;-84
2023/08/18 11:07:36;;;;;;;10.68;9.57;;;;;;;25.91;66.42;98917.28;4992558;28;20030;-85
2023/08/18 11:10:13;;;;;;;10.40;9.30;;;;;;;26.18;67.45;98906.72;5030255;28;20035;-84
2023/08/18 11:12:41;;;;;;;9.30;8.40;;;;;;;26.08;63.57;98908.00;5025687;28;20025;-85
2023/08/18 11:15:07;;;;;;;8.88;8.07;;;;;;;25.97;63.48;98909.66;5027461;28;20040;-85